Time;durP1;ratioP1;P1;durP2;ratioP2;P2;SDS_P1;SDS_P2;PMS_P1;PMS_P2;Temp;Humidity;BMP_temperature;BMP_pressure;BME280_temperature;BME280_humidity;BME280_pressure;Samples;Min_cycle;Max_cycle;Signal;HPM_P1;HPM_P2
2022/09/11 00:01:30;;;;;;;160.20;61.85;;;;;;;;;;5044129;28;20499;-75
2022/09/11 00:03:55;;;;;;;157.13;60.50;;;;;;;;;;5074302;28;20055;-75
2022/09/11 00:06:21;;;;;;;152.90;59.08;;;;;;;;;;5059491;28;20495;-75
2022/09/11 00:08:50;;;;;;;155.57;57.58;;;;;;;;;;5057587;28;20027;-75
2022/09/11 00:11:16;;;;;;;167.90;58.95;;;;;;;;;;5038255;28;20117;-75
2022/09/11 00:13:42;;;;;;;172.35;61.28;;;;;;;;;;5073301;28;20585;-75
2022/09/11 00:16:17;;;;;;;154.82;59.95;;;;;;;;;;5055959;28;20107;-74
2022/09/11 00:18:43;;;;;;;150.20;56.60;;;;;;;;;;5069622;28;20059;-75
2022/09/11 00:21:08;;;;;;;177.70;61.92;;;;;;;;;;5043248;28;20051;-75
2022/09/11 00:23:33;;;;;;;153.25;58.78;;;;;;;;;;5077971;28;20047;-75
2022/09/11 00:26:02;;;;;;;172.10;62.45;;;;;;;;;;5039511;28;20454;-75
2022/09/11 00:28:27;;;;;;;145.93;57.42;;;;;;;;;;5053178;28;20116;-75
2022/09/11 00:31:00;;;;;;;176.98;60.85;;;;;;;;;;5058377;28;20032;-75
2022/09/11 00:33:26;;;;;;;172.65;61.40;;;;;;;;;;5076199;28;20024;-75
2022/09/11 00:36:03;;;;;;;165.45;62.70;;;;;;;;;;5041419;28;20043;-75
2022/09/11 00:38:29;;;;;;;184.98;62.00;;;;;;;;;;5074968;28;20047;-74
2022/09/11 00:40:57;;;;;;;160.13;57.70;;;;;;;;;;5057173;28;20514;-75
2022/09/11 00:43:22;;;;;;;180.73;62.60;;;;;;;;;;5071826;28;20371;-75
2022/09/11 00:45:53;;;;;;;174.93;63.33;;;;;;;;;;5076316;28;20109;-75
2022/09/11 00:48:19;;;;;;;183.15;61.85;;;;;;;;;;5075006;28;20038;-75
2022/09/11 00:50:44;;;;;;;176.98;62.22;;;;;;;;;;5053097;28;20033;-74
2022/09/11 00:53:10;;;;;;;182.80;64.18;;;;;;;;;;5052011;28;20544;-75
2022/09/11 00:55:36;;;;;;;180.88;62.55;;;;;;;;;;5053025;28;20029;-75
2022/09/11 00:58:12;;;;;;;193.05;62.00;;;;;;;;;;5057390;28;20436;-75
2022/09/11 01:00:38;;;;;;;186.68;60.83;;;;;;;;;;5072103;28;20400;-74
2022/09/11 01:03:03;;;;;;;182.13;62.38;;;;;;;;;;5077119;28;20063;-75
2022/09/11 01:05:33;;;;;;;192.82;62.33;;;;;;;;;;5069335;28;20122;-75
2022/09/11 01:07:58;;;;;;;187.93;63.25;;;;;;;;;;5038685;28;20737;-74
2022/09/11 01:10:46;;;;;;;198.77;66.25;;;;;;;;;;5053448;28;20118;-74
2022/09/11 01:13:20;;;;;;;208.48;63.88;;;;;;;;;;5077893;28;20138;-74
2022/09/11 01:15:50;;;;;;;210.02;64.93;;;;;;;;;;5026049;28;20041;-74
2022/09/11 01:18:28;;;;;;;191.05;64.05;;;;;;;;;;5078218;28;20046;-74
2022/09/11 01:21:18;;;;;;;201.77;67.05;;;;;;;;;;5046704;28;20028;-74
2022/09/11 01:23:56;;;;;;;195.48;62.95;;;;;;;;;;5081022;28;20047;-74
2022/09/11 01:26:55;;;;;;;194.25;62.92;;;;;;;;;;5061673;28;20446;-75
2022/09/11 01:29:33;;;;;;;206.00;65.20;;;;;;;;;;5064468;28;20063;-75
2022/09/11 01:32:20;;;;;;;196.98;64.47;;;;;;;;;;5077439;28;20139;-75
2022/09/11 01:35:11;;;;;;;231.68;64.00;;;;;;;;;;5047982;28;20494;-75
2022/09/11 01:37:58;;;;;;;213.48;65.15;;;;;;;;;;5056498;28;20465;-74
2022/09/11 01:40:27;;;;;;;202.43;65.90;;;;;;;;;;5055152;28;20463;-75
2022/09/11 01:42:54;;;;;;;201.02;63.67;;;;;;;;;;5060524;28;20016;-74
2022/09/11 01:45:19;;;;;;;206.48;65.82;;;;;;;;;;5060397;28;20036;-74
2022/09/11 01:47:45;;;;;;;218.50;65.55;;;;;;;;;;5039343;28;20111;-75
2022/09/11 01:50:11;;;;;;;218.25;65.00;;;;;;;;;;5045021;28;20031;-75
2022/09/11 01:52:57;;;;;;;226.07;69.75;;;;;;;;;;5039214;28;20467;-75
2022/09/11 01:55:33;;;;;;;231.82;67.68;;;;;;;;;;5062329;28;20030;-75
2022/09/11 01:58:05;;;;;;;220.48;68.75;;;;;;;;;;5057202;28;20027;-75
2022/09/11 02:00:31;;;;;;;212.25;67.07;;;;;;;;;;5060995;28;20427;-75
2022/09/11 02:02:59;;;;;;;214.93;66.60;;;;;;;;;;5027987;28;20031;-75
2022/09/11 02:05:48;;;;;;;232.85;68.10;;;;;;;;;;5044030;28;20028;-75
2022/09/11 02:08:19;;;;;;;206.35;64.28;;;;;;;;;;5063454;28;20090;-75
2022/09/11 02:10:50;;;;;;;219.75;66.32;;;;;;;;;;5021534;28;20039;-75
2022/09/11 02:13:31;;;;;;;198.85;64.10;;;;;;;;;;5025220;28;20020;-75
2022/09/11 02:16:08;;;;;;;234.90;66.13;;;;;;;;;;5059177;28;20028;-75
2022/09/11 02:18:49;;;;;;;221.57;64.25;;;;;;;;;;5055538;28;20177;-75
2022/09/11 02:21:14;;;;;;;219.80;65.50;;;;;;;;;;5039174;28;20490;-75
2022/09/11 02:23:40;;;;;;;190.35;64.38;;;;;;;;;;5044960;28;20052;-75
2022/09/11 02:26:05;;;;;;;216.73;64.97;;;;;;;;;;5056068;28;20462;-75
2022/09/11 02:28:30;;;;;;;183.55;61.20;;;;;;;;;;5047469;28;20031;-75
2022/09/11 02:30:56;;;;;;;192.13;61.35;;;;;;;;;;5075807;28;20036;-75
2022/09/11 02:33:27;;;;;;;198.57;61.90;;;;;;;;;;5048332;28;20123;-75
2022/09/11 02:35:53;;;;;;;195.45;62.88;;;;;;;;;;5060555;28;20079;-72
2022/09/11 02:38:22;;;;;;;203.93;64.22;;;;;;;;;;5037265;28;20075;-75
2022/09/11 02:40:54;;;;;;;184.52;59.20;;;;;;;;;;5056070;28;20024;-75
2022/09/11 02:43:31;;;;;;;187.95;61.53;;;;;;;;;;5047063;28;20487;-75
2022/09/11 02:46:22;;;;;;;193.48;60.63;;;;;;;;;;5077303;28;20111;-75
2022/09/11 02:49:14;;;;;;;186.20;58.58;;;;;;;;;;5071457;28;20503;-74
2022/09/11 02:51:48;;;;;;;188.95;58.63;;;;;;;;;;5076489;28;20045;-74
2022/09/11 02:54:27;;;;;;;186.88;56.50;;;;;;;;;;5058906;28;20111;-74
2022/09/11 02:57:05;;;;;;;204.60;57.67;;;;;;;;;;5075148;28;20037;-74
2022/09/11 02:59:33;;;;;;;191.23;57.92;;;;;;;;;;5053953;28;20477;-74
2022/09/11 03:02:00;;;;;;;163.85;54.28;;;;;;;;;;5075780;28;20442;-74
2022/09/11 03:04:26;;;;;;;180.85;54.17;;;;;;;;;;5075436;28;20066;-74
2022/09/11 03:06:52;;;;;;;166.13;51.92;;;;;;;;;;5057392;28;20028;-75
2022/09/11 03:09:17;;;;;;;172.90;56.40;;;;;;;;;;5041016;28;20027;-74
2022/09/11 03:11:43;;;;;;;200.23;59.92;;;;;;;;;;5056489;28;20040;-75
2022/09/11 03:14:09;;;;;;;185.82;58.08;;;;;;;;;;5057580;28;20052;-74
2022/09/11 03:16:35;;;;;;;162.23;54.85;;;;;;;;;;5061366;28;20036;-74
2022/09/11 03:19:01;;;;;;;210.43;62.30;;;;;;;;;;5073313;28;20052;-75
2022/09/11 03:21:26;;;;;;;194.43;59.15;;;;;;;;;;5074280;28;20542;-74
2022/09/11 03:23:52;;;;;;;265.67;66.68;;;;;;;;;;5037666;28;20037;-74
2022/09/11 03:26:17;;;;;;;301.27;66.50;;;;;;;;;;5073382;28;20448;-74
2022/09/11 03:28:43;;;;;;;316.98;68.32;;;;;;;;;;5054935;28;20083;-74
2022/09/11 03:31:09;;;;;;;396.77;71.43;;;;;;;;;;5057048;28;20115;-74
2022/09/11 03:33:34;;;;;;;350.23;64.75;;;;;;;;;;5058616;28;20036;-74
2022/09/11 03:35:59;;;;;;;359.45;63.95;;;;;;;;;;5040792;28;20483;-74
2022/09/11 03:38:25;;;;;;;260.70;59.00;;;;;;;;;;5056163;28;20032;-75
2022/09/11 03:40:50;;;;;;;400.90;67.30;;;;;;;;;;5071299;28;20033;-74
2022/09/11 03:43:15;;;;;;;362.13;65.07;;;;;;;;;;5059378;28;20101;-75
2022/09/11 03:45:41;;;;;;;339.35;61.67;;;;;;;;;;5045947;28;20048;-75
2022/09/11 03:48:07;;;;;;;312.23;58.70;;;;;;;;;;5039734;28;20471;-74
2022/09/11 03:50:32;;;;;;;421.17;64.70;;;;;;;;;;5040007;28;20024;-74
2022/09/11 03:52:58;;;;;;;351.67;61.20;;;;;;;;;;5073395;28;20024;-74
2022/09/11 03:55:23;;;;;;;298.52;60.80;;;;;;;;;;5051538;28;20601;-75
2022/09/11 03:57:49;;;;;;;396.30;65.70;;;;;;;;;;5024289;28;20043;-75
2022/09/11 04:00:14;;;;;;;459.90;68.75;;;;;;;;;;5075477;28;20139;-75
2022/09/11 04:02:40;;;;;;;442.33;67.10;;;;;;;;;;5068688;28;20032;-75
2022/09/11 04:05:07;;;;;;;337.20;65.50;;;;;;;;;;5047678;28;20028;-75
2022/09/11 04:07:33;;;;;;;402.45;65.65;;;;;;;;;;5067137;28;20190;-75
2022/09/11 04:09:59;;;;;;;366.20;65.97;;;;;;;;;;5057065;28;20051;-75
2022/09/11 04:12:24;;;;;;;312.80;64.93;;;;;;;;;;5077980;28;20796;-75
2022/09/11 04:14:50;;;;;;;386.13;64.20;;;;;;;;;;5063000;28;20805;-75
2022/09/11 04:17:15;;;;;;;352.67;65.80;;;;;;;;;;5070688;28;20043;-75
2022/09/11 04:19:40;;;;;;;408.08;69.72;;;;;;;;;;5063855;28;20368;-75
2022/09/11 04:22:06;;;;;;;328.83;62.67;;;;;;;;;;5059223;28;20074;-75
2022/09/11 04:24:31;;;;;;;187.98;58.10;;;;;;;;;;5071831;28;20039;-75
2022/09/11 04:26:59;;;;;;;241.07;60.92;;;;;;;;;;5091656;28;20029;-75
2022/09/11 04:29:25;;;;;;;302.42;65.15;;;;;;;;;;5036380;28;20040;-75
2022/09/11 04:31:50;;;;;;;367.15;70.28;;;;;;;;;;5056012;28;20551;-75
2022/09/11 04:34:16;;;;;;;316.50;65.70;;;;;;;;;;5061482;28;20039;-75
2022/09/11 04:36:42;;;;;;;334.20;64.93;;;;;;;;;;5074603;28;20043;-75
2022/09/11 04:39:07;;;;;;;371.08;68.03;;;;;;;;;;5057316;28;20090;-75
2022/09/11 04:41:33;;;;;;;334.95;67.93;;;;;;;;;;5054989;28;20024;-75
2022/09/11 04:44:01;;;;;;;408.02;68.90;;;;;;;;;;5051325;28;20346;-76
2022/09/11 04:46:26;;;;;;;384.80;68.38;;;;;;;;;;5034400;28;20036;-76
2022/09/11 04:48:54;;;;;;;330.05;63.47;;;;;;;;;;5055019;28;20421;-75
2022/09/11 04:51:28;;;;;;;440.88;70.28;;;;;;;;;;5071102;28;20037;-75
2022/09/11 04:53:56;;;;;;;409.02;67.28;;;;;;;;;;5055561;28;20066;-75
2022/09/11 04:56:22;;;;;;;364.48;63.65;;;;;;;;;;5037562;28;20118;-75
2022/09/11 04:58:57;;;;;;;377.30;62.38;;;;;;;;;;5054903;28;20609;-75
2022/09/11 05:01:23;;;;;;;400.95;68.18;;;;;;;;;;5036644;28;20077;-75
2022/09/11 05:03:48;;;;;;;370.92;64.63;;;;;;;;;;5069031;28;20800;-75
2022/09/11 05:06:16;;;;;;;421.73;69.28;;;;;;;;;;5064583;28;20021;-75
2022/09/11 05:08:43;;;;;;;432.33;66.47;;;;;;;;;;5068809;28;20021;-75
2022/09/11 05:11:10;;;;;;;328.10;64.40;;;;;;;;;;5067949;28;20016;-75
2022/09/11 05:13:35;;;;;;;435.73;68.03;;;;;;;;;;5063495;28;20031;-75
2022/09/11 05:16:10;;;;;;;375.45;64.30;;;;;;;;;;5066003;28;20057;-75
2022/09/11 05:18:36;;;;;;;337.50;62.45;;;;;;;;;;5069284;28;20028;-74
2022/09/11 05:21:06;;;;;;;414.02;65.53;;;;;;;;;;5050294;28;20093;-75
2022/09/11 05:23:32;;;;;;;473.30;68.95;;;;;;;;;;5053796;28;20024;-75
2022/09/11 05:25:58;;;;;;;274.02;56.60;;;;;;;;;;5034038;28;20033;-75
2022/09/11 05:28:25;;;;;;;320.45;60.95;;;;;;;;;;5060730;28;20036;-75
2022/09/11 05:30:51;;;;;;;291.77;58.08;;;;;;;;;;5051094;28;20075;-75
2022/09/11 05:33:18;;;;;;;295.13;59.10;;;;;;;;;;5066686;28;20131;-74
2022/09/11 05:35:43;;;;;;;281.27;60.00;;;;;;;;;;5057550;28;20115;-74
2022/09/11 05:38:09;;;;;;;415.45;62.80;;;;;;;;;;5036283;28;20230;-74
2022/09/11 05:40:35;;;;;;;385.05;65.07;;;;;;;;;;5040023;28;20446;-75
2022/09/11 05:43:01;;;;;;;363.58;62.83;;;;;;;;;;5060123;28;20032;-76
2022/09/11 05:45:26;;;;;;;430.42;65.55;;;;;;;;;;5052746;28;20111;-76
2022/09/11 05:47:52;;;;;;;182.93;53.47;;;;;;;;;;5054112;28;20060;-76
2022/09/11 05:50:20;;;;;;;166.48;51.47;;;;;;;;;;5069156;28;20172;-76
2022/09/11 05:52:46;;;;;;;138.25;50.03;;;;;;;;;;5064146;28;20425;-76
2022/09/11 05:55:11;;;;;;;220.85;53.88;;;;;;;;;;5047358;28;20112;-76
2022/09/11 05:57:36;;;;;;;160.85;50.67;;;;;;;;;;5033471;28;20041;-74
2022/09/11 06:00:03;;;;;;;210.63;50.50;;;;;;;;;;5077767;28;20063;-76
2022/09/11 06:02:29;;;;;;;311.75;56.70;;;;;;;;;;5072973;28;20070;-75
2022/09/11 06:04:55;;;;;;;199.90;51.22;;;;;;;;;;5061195;28;20040;-75
2022/09/11 06:07:20;;;;;;;275.75;53.60;;;;;;;;;;5050625;28;20075;-75
2022/09/11 06:09:46;;;;;;;292.88;53.92;;;;;;;;;;5069200;28;20075;-75
2022/09/11 06:12:11;;;;;;;293.95;54.03;;;;;;;;;;5032715;28;20059;-75
2022/09/11 06:14:37;;;;;;;266.17;50.13;;;;;;;;;;5057251;28;20056;-75
2022/09/11 06:17:02;;;;;;;224.35;46.60;;;;;;;;;;5080157;28;20305;-75
2022/09/11 06:19:28;;;;;;;208.82;49.17;;;;;;;;;;5037473;28;20024;-75
2022/09/11 06:21:55;;;;;;;137.15;45.35;;;;;;;;;;5075465;28;20068;-75
2022/09/11 06:24:20;;;;;;;206.20;47.40;;;;;;;;;;5073785;28;20032;-75
2022/09/11 06:26:45;;;;;;;173.40;45.90;;;;;;;;;;5060783;28;20124;-76
2022/09/11 06:29:13;;;;;;;224.82;46.75;;;;;;;;;;5059701;28;20564;-76
2022/09/11 06:31:39;;;;;;;186.90;47.25;;;;;;;;;;5073974;28;20039;-76
2022/09/11 06:34:05;;;;;;;130.80;43.00;;;;;;;;;;5070917;28;20036;-76
2022/09/11 06:36:30;;;;;;;133.77;43.45;;;;;;;;;;5070267;28;20055;-76
2022/09/11 06:38:56;;;;;;;187.25;47.15;;;;;;;;;;5063026;28;20060;-76
2022/09/11 06:41:23;;;;;;;146.30;44.42;;;;;;;;;;5066068;28;20036;-76
2022/09/11 06:43:48;;;;;;;155.57;45.63;;;;;;;;;;5062973;28;20055;-76
2022/09/11 06:46:18;;;;;;;160.38;44.58;;;;;;;;;;5054627;28;20136;-76
2022/09/11 06:48:45;;;;;;;88.97;38.92;;;;;;;;;;5042879;28;20111;-75
2022/09/11 06:51:11;;;;;;;96.82;40.00;;;;;;;;;;5055511;28;20013;-76
2022/09/11 06:53:37;;;;;;;89.47;38.70;;;;;;;;;;5060663;28;20047;-76
2022/09/11 06:56:03;;;;;;;81.45;38.88;;;;;;;;;;5067576;28;20392;-76
2022/09/11 06:58:29;;;;;;;81.65;37.95;;;;;;;;;;5049756;28;20477;-75
2022/09/11 07:00:58;;;;;;;71.75;36.08;;;;;;;;;;5053299;28;20028;-74
2022/09/11 07:03:23;;;;;;;77.50;38.78;;;;;;;;;;5065567;28;20067;-74
2022/09/11 07:05:49;;;;;;;63.53;35.40;;;;;;;;;;5064190;28;20113;-74
2022/09/11 07:08:14;;;;;;;73.75;33.83;;;;;;;;;;5067388;28;20063;-74
2022/09/11 07:10:40;;;;;;;81.25;34.50;;;;;;;;;;5067879;28;20503;-74
2022/09/11 07:13:05;;;;;;;53.78;32.42;;;;;;;;;;5068187;28;20086;-74
2022/09/11 07:15:31;;;;;;;57.95;33.45;;;;;;;;;;5066094;28;20022;-73
2022/09/11 07:17:56;;;;;;;68.45;33.97;;;;;;;;;;5065040;28;20129;-72
2022/09/11 07:20:22;;;;;;;45.45;32.65;;;;;;;;;;5065438;28;20020;-72
2022/09/11 07:22:47;;;;;;;55.50;30.63;;;;;;;;;;5051879;28;20039;-72
2022/09/11 07:25:13;;;;;;;40.00;28.10;;;;;;;;;;5048869;28;20491;-71
2022/09/11 07:27:38;;;;;;;68.65;26.75;;;;;;;;;;5068325;28;20025;-73
2022/09/11 07:30:04;;;;;;;44.15;25.73;;;;;;;;;;5057943;28;20066;-72
2022/09/11 07:32:30;;;;;;;30.92;25.98;;;;;;;;;;5048458;28;20063;-71
2022/09/11 07:34:55;;;;;;;30.80;23.45;;;;;;;;;;5036839;28;20066;-72
2022/09/11 07:37:20;;;;;;;25.30;22.60;;;;;;;;;;5062847;28;20654;-74
2022/09/11 07:39:46;;;;;;;25.45;22.05;;;;;;;;;;5032553;28;20512;-74
2022/09/11 07:42:11;;;;;;;25.45;22.73;;;;;;;;;;5033069;28;20129;-74
2022/09/11 07:44:38;;;;;;;23.00;20.60;;;;;;;;;;5065553;28;20402;-81
2022/09/11 07:47:04;;;;;;;20.00;18.00;;;;;;;;;;5051260;28;20032;-75
2022/09/11 07:49:29;;;;;;;18.33;16.55;;;;;;;;;;5033924;28;20533;-76
2022/09/11 07:51:55;;;;;;;17.50;15.82;;;;;;;;;;5034093;28;20033;-76
2022/09/11 07:54:20;;;;;;;16.05;14.55;;;;;;;;;;5035086;28;20028;-75
2022/09/11 07:56:46;;;;;;;15.13;13.63;;;;;;;;;;5047093;28;20020;-77
2022/09/11 07:59:11;;;;;;;13.57;12.20;;;;;;;;;;5065396;28;20637;-76
2022/09/11 08:01:37;;;;;;;12.05;10.85;;;;;;;;;;5046559;28;20119;-73
2022/09/11 08:04:06;;;;;;;11.43;10.35;;;;;;;;;;5053028;28;20047;-75
2022/09/11 08:06:33;;;;;;;12.45;9.90;;;;;;;;;;5049676;28;20063;-76
2022/09/11 08:09:04;;;;;;;12.07;9.32;;;;;;;;;;5029645;28;20029;-75
2022/09/11 08:11:30;;;;;;;10.98;9.88;;;;;;;;;;5035412;28;20020;-75
2022/09/11 08:13:56;;;;;;;11.50;9.48;;;;;;;;;;5051297;28;20051;-75
2022/09/11 08:16:23;;;;;;;11.07;9.63;;;;;;;;;;5040327;28;20021;-75
2022/09/11 08:18:48;;;;;;;12.50;9.18;;;;;;;;;;5063774;28;20033;-76
2022/09/11 08:21:14;;;;;;;9.45;8.55;;;;;;;;;;5044831;28;20408;-76
2022/09/11 08:23:40;;;;;;;10.57;9.45;;;;;;;;;;5041551;28;20024;-76
2022/09/11 08:26:13;;;;;;;9.80;8.35;;;;;;;;;;5055251;28;20476;-76
2022/09/11 08:28:38;;;;;;;10.45;8.65;;;;;;;;;;5065162;28;20114;-76
2022/09/11 08:31:05;;;;;;;9.48;8.15;;;;;;;;;;5036447;28;20472;-76
2022/09/11 08:33:30;;;;;;;9.70;8.75;;;;;;;;;;5057642;28;20025;-76
2022/09/11 08:35:59;;;;;;;8.65;7.75;;;;;;;;;;5048267;28;20059;-76
2022/09/11 08:38:24;;;;;;;10.15;7.68;;;;;;;;;;5036835;28;20020;-76
2022/09/11 08:40:50;;;;;;;11.45;7.55;;;;;;;;;;5058540;28;20411;-76
2022/09/11 08:43:23;;;;;;;8.95;7.82;;;;;;;;;;5039048;28;20059;-76
2022/09/11 08:45:50;;;;;;;12.75;7.43;;;;;;;;;;5043342;28;20041;-75
2022/09/11 08:48:16;;;;;;;9.15;7.53;;;;;;;;;;5021348;28;20476;-75
2022/09/11 08:50:42;;;;;;;9.00;7.60;;;;;;;;;;5063219;28;20020;-76
2022/09/11 08:53:15;;;;;;;24.40;9.90;;;;;;;;;;5029750;28;20032;-76
2022/09/11 08:55:49;;;;;;;12.88;8.35;;;;;;;;;;5054998;28;20044;-77
2022/09/11 08:58:44;;;;;;;15.15;9.43;;;;;;;;;;5049813;28;20045;-74
2022/09/11 09:01:27;;;;;;;10.73;7.75;;;;;;;;;;5086290;28;20154;-76
2022/09/11 09:04:13;;;;;;;;;;;;;;;;;;5054185;28;20108;-75
2022/09/11 09:06:50;;;;;;;12.10;8.77;;;;;;;;;;5065460;28;19916;-75
2022/09/11 09:09:43;;;;;;;10.32;8.20;;;;;;;;;;5071797;28;20036;-75
2022/09/11 09:12:19;;;;;;;9.15;7.47;;;;;;;;;;5072034;28;20888;-77
2022/09/11 09:15:19;;;;;;;12.05;7.88;;;;;;;;;;5045768;28;20105;-76
2022/09/11 09:17:46;;;;;;;11.10;6.35;;;;;;;;;;5068155;28;20028;-77
2022/09/11 09:20:19;;;;;;;10.82;6.22;;;;;;;;;;5054003;28;20048;-76
2022/09/11 09:23:09;;;;;;;7.45;6.10;;;;;;;;;;5058578;28;20510;-76
2022/09/11 09:25:37;;;;;;;7.63;6.00;;;;;;;;;;5049335;28;20112;-77
2022/09/11 09:28:07;;;;;;;8.68;5.70;;;;;;;;;;5053622;28;20575;-76
2022/09/11 09:30:45;;;;;;;10.65;6.15;;;;;;;;;;5051365;28;20202;-76
2022/09/11 09:33:30;;;;;;;11.10;5.72;;;;;;;;;;5055468;28;20060;-76
2022/09/11 09:35:56;;;;;;;7.90;5.10;;;;;;;;;;5052755;28;20375;-76
2022/09/11 09:38:25;;;;;;;9.32;4.30;;;;;;;;;;5055293;28;20107;-76
2022/09/11 09:40:58;;;;;;;6.18;4.20;;;;;;;;;;5052892;28;20036;-76
2022/09/11 09:43:30;;;;;;;;;;;;;;;;;;5070860;28;20036;-76
2022/09/11 09:45:59;;;;;;;5.57;4.15;;;;;;;;;;5071874;28;20402;-76
2022/09/11 09:48:33;;;;;;;6.53;4.18;;;;;;;;;;5035746;28;20054;-76
2022/09/11 09:50:58;;;;;;;7.32;5.03;;;;;;;;;;5051543;28;20028;-76
2022/09/11 09:53:47;;;;;;;9.73;4.25;;;;;;;;;;5076982;28;20035;-76
2022/09/11 09:56:15;;;;;;;5.25;3.70;;;;;;;;;;5072899;28;20464;-76
2022/09/11 09:58:45;;;;;;;6.18;4.40;;;;;;;;;;5052094;28;20487;-76
2022/09/11 10:01:48;;;;;;;7.43;4.90;;;;;;;;;;5056905;28;20060;-75
2022/09/11 10:04:31;;;;;;;8.88;5.15;;;;;;;;;;5030587;28;20056;-75
2022/09/11 10:07:10;;;;;;;7.97;5.00;;;;;;;;;;5047597;28;20488;-75
2022/09/11 10:09:36;;;;;;;7.05;5.20;;;;;;;;;;5065645;28;20036;-75
2022/09/11 10:12:06;;;;;;;8.48;4.80;;;;;;;;;;5036549;28;20511;-75
2022/09/11 10:14:33;;;;;;;7.38;4.35;;;;;;;;;;5032225;28;20039;-74
2022/09/11 10:16:59;;;;;;;7.43;4.30;;;;;;;;;;5061369;28;20109;-75
2022/09/11 10:19:39;;;;;;;8.00;4.05;;;;;;;;;;5052787;28;20025;-75
2022/09/11 10:22:24;;;;;;;5.63;4.40;;;;;;;;;;5062709;28;20032;-75
2022/09/11 10:25:10;;;;;;;8.63;3.78;;;;;;;;;;5052451;28;20029;-75
2022/09/11 10:28:02;;;;;;;5.35;3.50;;;;;;;;;;5063088;28;20495;-75
2022/09/11 10:30:38;;;;;;;6.90;3.45;;;;;;;;;;5058844;28;20040;-76
2022/09/11 10:33:17;;;;;;;6.90;3.67;;;;;;;;;;5044812;28;20510;-76
2022/09/11 10:35:49;;;;;;;4.95;3.00;;;;;;;;;;5046684;28;20063;-75
2022/09/11 10:38:16;;;;;;;7.97;2.70;;;;;;;;;;5057371;28;20111;-75
2022/09/11 10:40:46;;;;;;;5.22;2.10;;;;;;;;;;5045750;28;20097;-75
2022/09/11 10:43:23;;;;;;;5.97;2.42;;;;;;;;;;5043697;28;20555;-75
2022/09/11 10:46:05;;;;;;;7.10;2.08;;;;;;;;;;5056189;28;20407;-74
2022/09/11 10:48:31;;;;;;;8.18;3.10;;;;;;;;;;5052125;28;20392;-73
2022/09/11 10:51:04;;;;;;;7.85;3.97;;;;;;;;;;5041210;28;20032;-73
2022/09/11 10:53:30;;;;;;;8.32;4.38;;;;;;;;;;5051777;28;20036;-73
2022/09/11 10:55:57;;;;;;;7.00;2.90;;;;;;;;;;5052324;28;20593;-74
2022/09/11 10:58:23;;;;;;;4.28;2.92;;;;;;;;;;5040944;28;20066;-74
2022/09/11 11:00:50;;;;;;;7.70;3.97;;;;;;;;;;5047153;28;20056;-76
2022/09/11 11:03:18;;;;;;;4.38;2.60;;;;;;;;;;5059594;28;20033;-76
2022/09/11 11:06:11;;;;;;;3.65;2.28;;;;;;;;;;5034230;28;20144;-72
2022/09/11 11:08:36;;;;;;;;;;;;;;;;;;5056997;28;20032;-72
2022/09/11 11:11:24;;;;;;;3.80;2.23;;;;;;;;;;5074413;28;19919;-73
2022/09/11 11:14:03;;;;;;;4.38;2.40;;;;;;;;;;5077042;28;20286;-73
2022/09/11 11:17:10;;;;;;;6.68;2.50;;;;;;;;;;5069576;28;20019;-73
2022/09/11 11:19:40;;;;;;;5.28;1.92;;;;;;;;;;5056988;28;20391;-72
2022/09/11 11:22:21;;;;;;;3.53;1.60;;;;;;;;;;5070219;28;20067;-72
2022/09/11 11:25:06;;;;;;;6.00;2.10;;;;;;;;;;5072961;28;20054;-72
2022/09/11 11:27:42;;;;;;;5.13;2.03;;;;;;;;;;5066821;28;20506;-73
2022/09/11 11:30:08;;;;;;;3.85;1.67;;;;;;;;;;5069655;28;20397;-72
2022/09/11 11:32:58;;;;;;;4.53;1.42;;;;;;;;;;5069420;28;20111;-72
2022/09/11 11:35:35;;;;;;;6.07;2.03;;;;;;;;;;5072806;28;20039;-72
2022/09/11 11:38:21;;;;;;;6.88;1.83;;;;;;;;;;5065875;28;20029;-72
2022/09/11 11:41:06;;;;;;;4.35;2.38;;;;;;;;;;5064372;28;20031;-72
2022/09/11 11:43:33;;;;;;;6.55;2.58;;;;;;;;;;5041156;28;20027;-72
2022/09/11 11:46:07;;;;;;;5.70;2.78;;;;;;;;;;5041897;28;20032;-73
2022/09/11 11:48:49;;;;;;;5.72;2.78;;;;;;;;;;5048936;28;20020;-72
2022/09/11 11:51:20;;;;;;;2.28;1.83;;;;;;;;;;5033039;28;20061;-72
2022/09/11 11:54:08;;;;;;;4.72;2.53;;;;;;;;;;5058112;28;20033;-72
2022/09/11 11:56:53;;;;;;;5.80;2.25;;;;;;;;;;5073455;28;20027;-72
2022/09/11 11:59:34;;;;;;;3.97;1.67;;;;;;;;;;5071460;28;20158;-72
2022/09/11 12:02:08;;;;;;;3.55;1.60;;;;;;;;;;5078967;28;20399;-72
2022/09/11 12:04:55;;;;;;;6.85;1.75;;;;;;;;;;5074513;28;20052;-72
2022/09/11 12:07:21;;;;;;;7.20;1.50;;;;;;;;;;5069928;28;20095;-72
2022/09/11 12:09:48;;;;;;;4.50;1.73;;;;;;;;;;5075782;28;20047;-72
2022/09/11 12:12:15;;;;;;;5.38;2.30;;;;;;;;;;5059974;28;20016;-73
2022/09/11 12:14:47;;;;;;;3.70;1.73;;;;;;;;;;5035388;28;20090;-72
2022/09/11 12:17:31;;;;;;;2.63;1.45;;;;;;;;;;5066942;28;20032;-72
2022/09/11 12:20:09;;;;;;;5.05;1.30;;;;;;;;;;5057527;28;20043;-72
2022/09/11 12:22:39;;;;;;;3.28;0.98;;;;;;;;;;5070816;28;20443;-72
2022/09/11 12:25:24;;;;;;;4.18;1.42;;;;;;;;;;5040877;28;20028;-72
2022/09/11 12:28:21;;;;;;;4.00;1.17;;;;;;;;;;5088019;28;20031;-73
2022/09/11 12:30:59;;;;;;;5.38;1.67;;;;;;;;;;5053171;28;20056;-74
2022/09/11 12:33:40;;;;;;;7.65;1.92;;;;;;;;;;5069941;28;20028;-72
2022/09/11 12:36:22;;;;;;;4.43;1.80;;;;;;;;;;5069096;28;20713;-73
2022/09/11 12:38:49;;;;;;;4.35;1.40;;;;;;;;;;5050295;28;20119;-72
2022/09/11 12:41:29;;;;;;;3.15;1.50;;;;;;;;;;5038135;28;20079;-74
2022/09/11 12:43:54;;;;;;;4.47;1.63;;;;;;;;;;5056564;28;20032;-71
2022/09/11 12:46:19;;;;;;;2.83;1.38;;;;;;;;;;5061133;28;20102;-71
2022/09/11 12:49:09;;;;;;;4.67;1.53;;;;;;;;;;5068134;28;20403;-71
2022/09/11 12:51:41;;;;;;;4.75;1.40;;;;;;;;;;5070777;28;20329;-72
2022/09/11 12:54:15;;;;;;;3.60;1.63;;;;;;;;;;5055262;28;20477;-71
2022/09/11 12:56:45;;;;;;;3.45;1.50;;;;;;;;;;5046217;28;20024;-71
2022/09/11 12:59:24;;;;;;;4.47;1.55;;;;;;;;;;5050653;28;20111;-71
2022/09/11 13:01:50;;;;;;;5.88;1.92;;;;;;;;;;5053056;28;20024;-71
2022/09/11 13:04:18;;;;;;;4.93;1.25;;;;;;;;;;5066264;28;20025;-71
2022/09/11 14:24:32;;;;;;;3.00;1.10;;;;;;;;;;5114684;27;20427;-75
2022/09/11 14:27:35;;;;;;;4.85;1.63;;;;;;;;;;5093034;28;20063;-74
2022/09/11 14:30:00;;;;;;;3.42;1.20;;;;;;;;;;5099506;28;20055;-74
2022/09/11 14:32:36;;;;;;;2.95;1.23;;;;;;;;;;5084696;28;20051;-74
2022/09/11 14:35:07;;;;;;;2.33;1.00;;;;;;;;;;5080509;28;20114;-75
2022/09/11 14:37:35;;;;;;;2.78;0.88;;;;;;;;;;5085844;28;20023;-75
2022/09/11 14:40:05;;;;;;;2.70;1.20;;;;;;;;;;5086565;28;20062;-75
2022/09/11 14:42:31;;;;;;;5.13;2.08;;;;;;;;;;5079357;28;20028;-74
2022/09/11 14:44:57;;;;;;;3.30;0.93;;;;;;;;;;5079035;28;20051;-74
2022/09/11 14:47:24;;;;;;;2.83;1.23;;;;;;;;;;5094303;28;20106;-74
2022/09/11 14:49:51;;;;;;;3.58;0.98;;;;;;;;;;5068284;28;20111;-74
2022/09/11 14:52:18;;;;;;;4.28;1.70;;;;;;;;;;5068536;28;20077;-74
2022/09/11 14:54:44;;;;;;;3.25;1.00;;;;;;;;;;5082475;28;20410;-74
2022/09/11 14:57:14;;;;;;;4.20;1.10;;;;;;;;;;5108022;28;20055;-76
2022/09/11 14:59:40;;;;;;;4.10;1.17;;;;;;;;;;5049436;28;20020;-76
2022/09/11 15:02:13;;;;;;;4.05;1.50;;;;;;;;;;5064053;28;20024;-76
2022/09/11 15:04:38;;;;;;;3.05;1.17;;;;;;;;;;5104617;28;20408;-76
2022/09/11 15:07:04;;;;;;;2.10;1.10;;;;;;;;;;5087898;28;20024;-76
2022/09/11 15:09:29;;;;;;;3.95;1.25;;;;;;;;;;5088255;28;20023;-76
2022/09/11 15:11:55;;;;;;;2.65;1.00;;;;;;;;;;5103552;28;20066;-77
2022/09/11 15:14:20;;;;;;;2.70;1.02;;;;;;;;;;5097740;28;20043;-76
2022/09/11 15:16:46;;;;;;;4.55;1.10;;;;;;;;;;5099399;28;20055;-75
2022/09/11 15:19:11;;;;;;;4.00;1.08;;;;;;;;;;5102399;28;20059;-76
2022/09/11 15:21:37;;;;;;;5.30;2.17;;;;;;;;;;5100956;28;20162;-75
2022/09/11 15:24:05;;;;;;;4.15;1.42;;;;;;;;;;5093760;28;20047;-76
2022/09/11 15:26:32;;;;;;;5.35;1.80;;;;;;;;;;5088311;28;20042;-74
2022/09/11 15:28:57;;;;;;;4.57;1.80;;;;;;;;;;5101156;27;20360;-74
2022/09/11 15:31:23;;;;;;;6.45;2.65;;;;;;;;;;5091970;28;20094;-76
2022/09/11 15:33:51;;;;;;;6.38;1.90;;;;;;;;;;5086515;28;20032;-76
2022/09/11 15:36:17;;;;;;;4.43;2.40;;;;;;;;;;5071045;28;20036;-75
2022/09/11 15:38:43;;;;;;;4.85;2.03;;;;;;;;;;5087366;28;20081;-76
2022/09/11 15:41:09;;;;;;;5.63;2.35;;;;;;;;;;5068745;28;20456;-76
2022/09/11 15:43:35;;;;;;;6.93;2.40;;;;;;;;;;5086480;28;20164;-76
2022/09/11 15:46:10;;;;;;;4.90;1.98;;;;;;;;;;5065952;28;20020;-76
2022/09/11 15:48:38;;;;;;;4.63;1.88;;;;;;;;;;5087257;28;20034;-74
2022/09/11 15:51:03;;;;;;;6.30;1.80;;;;;;;;;;5083822;28;20032;-74
2022/09/11 15:53:29;;;;;;;4.00;2.08;;;;;;;;;;5047937;28;20028;-73
2022/09/11 15:56:08;;;;;;;5.50;1.58;;;;;;;;;;5084565;28;20109;-72
2022/09/11 15:58:34;;;;;;;4.57;1.92;;;;;;;;;;5086574;28;20016;-73
2022/09/11 16:01:00;;;;;;;4.72;1.90;;;;;;;;;;5054901;28;20423;-73